createdAt,value
2022-09-21T00:01:30.918Z,99009.97
2022-09-21T00:04:01.546Z,99013.25
2022-09-21T00:06:31.561Z,99008.56
2022-09-21T00:08:58.877Z,99014.91
2022-09-21T00:11:29.613Z,99007.31
2022-09-21T00:14:04.538Z,99011.94
2022-09-21T00:16:32.168Z,99001.13
2022-09-21T00:19:00.410Z,99014.44
2022-09-21T00:21:28.226Z,99014.09
2022-09-21T00:23:55.489Z,99009.50
2022-09-21T00:26:25.776Z,99012.81
2022-09-21T00:28:59.663Z,99011.59
2022-09-21T00:31:28.651Z,99003.44
2022-09-21T00:33:55.699Z,99004.63
2022-09-21T00:36:25.441Z,99009.13
2022-09-21T00:38:59.229Z,99010.44
2022-09-21T00:41:27.644Z,99009.41
2022-09-21T00:44:16.395Z,99020.22
2022-09-21T00:46:45.220Z,99010.59
2022-09-21T00:49:12.587Z,99021.16
2022-09-21T00:51:39.638Z,99026.78
2022-09-21T00:54:15.130Z,99025.16
2022-09-21T00:56:44.341Z,99020.03
2022-09-21T00:59:13.553Z,99017.94
2022-09-21T01:01:41.151Z,99019.66
2022-09-21T01:04:09.579Z,99014.13
2022-09-21T01:06:38.487Z,99017.66
2022-09-21T01:09:05.682Z,99023.34
2022-09-21T01:12:12.653Z,99016.38
2022-09-21T01:15:05.611Z,99016.38
2022-09-21T01:17:44.286Z,99018.09
2022-09-21T01:21:16.506Z,99011.88
2022-09-21T01:24:18.789Z,99008.75
2022-09-21T01:27:32.174Z,99005.81
2022-09-21T01:30:11.425Z,99001.44
2022-09-21T01:32:45.900Z,99007.56
2022-09-21T01:35:32.283Z,99014.25
2022-09-21T01:38:15.257Z,99010.22
2022-09-21T01:40:47.506Z,99009.66
2022-09-21T01:43:34.554Z,99015.53
2022-09-21T01:46:04.873Z,99022.78
2022-09-21T01:48:41.066Z,99016.94
2022-09-21T01:51:11.919Z,99014.56
2022-09-21T01:53:54.300Z,99021.81
2022-09-21T01:56:28.269Z,99019.78
2022-09-21T01:59:11.986Z,99007.75
2022-09-21T02:01:50.303Z,99014.44
2022-09-21T02:04:18.369Z,99011.56
2022-09-21T02:06:47.519Z,99014.72
2022-09-21T02:09:14.813Z,99008.38
2022-09-21T02:11:45.196Z,99015.63
2022-09-21T02:14:20.675Z,99005.53
2022-09-21T02:17:23.536Z,99010.78
2022-09-21T02:20:09.774Z,99010.25
2022-09-21T02:22:51.397Z,99017.19
2022-09-21T02:25:50.968Z,99011.13
2022-09-21T02:28:49.336Z,99002.41
2022-09-21T02:31:32.385Z,98999.47
2022-09-21T02:34:08.013Z,98995.25
2022-09-21T02:36:57.053Z,98998.94
2022-09-21T02:39:53.683Z,98999.53
2022-09-21T02:42:28.112Z,99010.56
2022-09-21T02:45:14.734Z,99003.50
2022-09-21T02:48:07.271Z,99011.94
2022-09-21T02:50:39.485Z,99021.16
2022-09-21T02:53:09.080Z,99024.03
2022-09-21T02:55:37.937Z,99021.47
2022-09-21T02:58:12.309Z,99016.38
2022-09-21T03:00:40.299Z,99021.94
2022-09-21T03:03:24.829Z,99026.13
2022-09-21T03:05:54.788Z,99012.56
2022-09-21T03:08:22.531Z,99019.69
2022-09-21T03:10:50.729Z,99011.69
2022-09-21T03:13:18.882Z,99017.16
2022-09-21T03:15:46.455Z,99017.03
2022-09-21T03:18:14.103Z,99017.56
2022-09-21T03:20:47.752Z,99021.94
2022-09-21T03:23:14.926Z,99018.34
2022-09-21T03:25:46.043Z,99018.09
2022-09-21T03:28:14.858Z,99021.69
2022-09-21T03:30:42.751Z,99026.84
2022-09-21T03:33:10.478Z,99029.84
2022-09-21T03:35:37.887Z,99028.19
2022-09-21T03:38:05.620Z,99031.84
2022-09-21T03:40:33.559Z,99034.63
2022-09-21T03:43:00.694Z,99034.91
2022-09-21T03:45:27.670Z,99035.00
2022-09-21T03:48:00.197Z,99026.25
2022-09-21T03:50:29.797Z,99036.78
2022-09-21T03:52:57.286Z,99025.13
2022-09-21T03:55:24.276Z,99036.91
2022-09-21T03:57:51.618Z,99036.69
2022-09-21T04:00:18.903Z,99028.81
2022-09-21T04:02:45.849Z,99033.81
2022-09-21T04:05:15.198Z,99029.56
2022-09-21T04:07:45.662Z,99029.59
2022-09-21T04:10:16.201Z,99030.16
2022-09-21T04:12:44.623Z,99025.56
2022-09-21T04:15:19.544Z,99028.16
2022-09-21T04:17:47.188Z,99025.72
2022-09-21T04:20:14.147Z,99024.75
2022-09-21T04:22:43.679Z,99031.59
2022-09-21T04:25:12.792Z,99038.16
2022-09-21T04:27:41.103Z,99035.72
2022-09-21T04:30:11.296Z,99045.78
2022-09-21T04:32:38.363Z,99038.81
2022-09-21T04:35:06.051Z,99045.25
2022-09-21T04:37:33.000Z,99039.31
2022-09-21T04:40:00.263Z,99045.50
2022-09-21T04:42:27.635Z,99046.47
2022-09-21T04:44:55.988Z,99048.63
2022-09-21T04:47:24.538Z,99050.13
2022-09-21T04:49:53.362Z,99052.91
2022-09-21T04:52:20.688Z,99053.44
2022-09-21T04:54:48.009Z,99053.00
2022-09-21T04:57:15.679Z,99053.91
2022-09-21T04:59:42.720Z,99057.78
2022-09-21T05:02:10.147Z,99069.38
2022-09-21T05:04:37.307Z,99068.56
2022-09-21T05:07:04.392Z,99074.00
2022-09-21T05:09:49.663Z,99078.66
2022-09-21T05:12:16.634Z,99085.44
2022-09-21T05:14:44.914Z,99073.00
2022-09-21T05:17:13.244Z,99075.16
2022-09-21T05:19:41.078Z,99081.47
2022-09-21T05:22:08.676Z,99072.81
2022-09-21T05:24:35.661Z,99075.59
2022-09-21T05:27:02.606Z,99073.59
2022-09-21T05:29:30.080Z,99078.25
2022-09-21T05:32:27.362Z,99075.47
2022-09-21T05:35:17.337Z,99079.16
2022-09-21T05:37:54.005Z,99080.81
2022-09-21T05:40:21.457Z,99077.53
2022-09-21T05:42:48.875Z,99082.88
2022-09-21T05:45:18.234Z,99081.88
2022-09-21T05:48:10.148Z,99096.44
2022-09-21T05:51:09.096Z,99090.84
2022-09-21T05:53:52.786Z,99095.44
2022-09-21T05:56:57.003Z,99095.44
2022-09-21T05:59:41.400Z,99098.81
2022-09-21T06:02:47.527Z,99104.25
2022-09-21T06:05:16.300Z,99104.09
2022-09-21T06:07:43.246Z,99102.63
2022-09-21T06:10:13.211Z,99111.41
2022-09-21T06:12:40.476Z,99109.63
2022-09-21T06:15:12.633Z,99110.09
2022-09-21T06:17:40.372Z,99112.44
2022-09-21T06:20:11.013Z,99111.41
2022-09-21T06:22:38.054Z,99113.38
2022-09-21T06:25:05.585Z,99107.25
2022-09-21T06:27:32.796Z,99108.78
2022-09-21T06:29:59.743Z,99102.81
2022-09-21T06:32:26.872Z,99105.13
2022-09-21T06:34:54.228Z,99105.16
2022-09-21T06:37:21.165Z,99098.50
2022-09-21T06:39:48.071Z,99110.75
2022-09-21T06:42:15.062Z,99101.34
2022-09-21T06:44:42.480Z,99103.63
2022-09-21T06:47:09.529Z,99100.19
2022-09-21T06:49:41.730Z,99102.66
2022-09-21T06:52:09.876Z,99103.13
2022-09-21T06:54:36.927Z,99099.63
2022-09-21T06:57:03.978Z,99104.47
2022-09-21T06:59:31.014Z,99105.16
2022-09-21T07:01:58.486Z,99106.94
2022-09-21T07:04:26.151Z,99097.44
2022-09-21T07:06:53.658Z,99099.47
2022-09-21T07:12:08.146Z,99096.16
2022-09-21T07:14:35.159Z,99102.25
2022-09-21T07:17:02.582Z,99101.72
2022-09-21T07:19:29.580Z,99108.56
2022-09-21T07:21:56.563Z,99100.28
2022-09-21T07:24:23.653Z,99100.94
2022-09-21T07:26:50.653Z,99107.56
2022-09-21T07:29:17.612Z,99089.44
2022-09-21T07:31:45.109Z,99098.97
2022-09-21T07:34:12.406Z,99094.25
2022-09-21T07:36:39.359Z,99102.91
2022-09-21T07:39:09.441Z,99103.72
2022-09-21T07:41:36.816Z,99106.03
2022-09-21T07:44:04.630Z,99109.75
2022-09-21T07:46:32.025Z,99108.38
2022-09-21T07:48:59.012Z,99100.72
2022-09-21T07:51:26.012Z,99105.41
2022-09-21T07:53:56.899Z,99100.69
2022-09-21T07:56:24.755Z,99103.66
2022-09-21T07:59:07.197Z,99102.94
2022-09-21T08:01:39.001Z,99100.94
2022-09-21T08:04:09.229Z,99114.66
2022-09-21T08:06:39.937Z,99110.97
2022-09-21T08:09:08.447Z,99104.66
2022-09-21T08:11:37.327Z,99097.78
2022-09-21T08:14:05.032Z,99101.81
2022-09-21T08:16:36.698Z,99105.53
2022-09-21T08:19:05.369Z,99105.47
2022-09-21T08:21:32.396Z,99095.28
2022-09-21T08:23:59.483Z,99106.72
2022-09-21T08:26:27.482Z,99104.06
2022-09-21T08:28:58.277Z,99096.66
2022-09-21T08:31:26.163Z,99093.84
2022-09-21T08:33:54.909Z,99099.53
2022-09-21T08:36:22.281Z,99101.94
2022-09-21T08:38:49.315Z,99108.97
2022-09-21T08:41:24.813Z,99093.19
2022-09-21T08:44:10.108Z,99091.97
2022-09-21T08:46:38.862Z,99102.09
2022-09-21T08:49:14.761Z,99097.19
2022-09-21T08:52:02.189Z,99102.06
2022-09-21T08:54:44.574Z,99089.03
2022-09-21T08:57:16.077Z,99090.28
2022-09-21T08:59:48.859Z,99083.19
2022-09-21T09:03:24.282Z,99082.88
2022-09-21T09:06:09.060Z,99083.09
2022-09-21T09:08:41.759Z,99081.38
2022-09-21T09:11:26.712Z,99068.53
2022-09-21T09:14:36.497Z,99064.59
2022-09-21T09:17:15.142Z,99066.44
2022-09-21T09:20:14.964Z,99067.16
2022-09-21T09:23:13.131Z,99072.13
2022-09-21T09:25:43.091Z,99069.19
2022-09-21T09:28:25.943Z,99070.47
2022-09-21T09:31:05.379Z,99065.97
2022-09-21T09:33:55.572Z,99063.78
2022-09-21T09:36:57.204Z,99066.31
2022-09-21T09:39:23.314Z,99055.97
2022-09-21T09:42:15.471Z,99057.97
2022-09-21T09:45:40.367Z,99056.53
2022-09-21T09:48:32.474Z,99055.94
2022-09-21T09:50:59.665Z,99057.69
2022-09-21T09:53:27.570Z,99053.44
2022-09-21T09:55:57.276Z,99055.97
2022-09-21T09:58:57.425Z,99051.19
2022-09-21T10:01:50.005Z,99047.91
2022-09-21T10:04:18.439Z,99056.16
2022-09-21T10:06:47.020Z,99039.56
2022-09-21T10:09:30.096Z,99043.06
2022-09-21T10:12:25.446Z,99039.66
2022-09-21T10:14:57.007Z,99038.03
2022-09-21T10:17:25.527Z,99037.81
2022-09-21T10:20:04.766Z,99042.56
2022-09-21T10:22:31.887Z,99036.72
2022-09-21T10:25:01.696Z,99031.69
2022-09-21T10:27:36.098Z,99019.03
2022-09-21T10:30:03.749Z,99019.84
2022-09-21T10:32:31.548Z,99020.59
2022-09-21T10:35:10.981Z,99017.75
2022-09-21T10:37:53.651Z,99014.16
2022-09-21T10:40:20.841Z,99007.06
2022-09-21T10:42:51.571Z,99011.09
2022-09-21T10:45:20.659Z,99010.69
2022-09-21T10:47:50.731Z,99004.44
2022-09-21T10:50:38.233Z,99013.44
2022-09-21T10:53:16.559Z,99013.06
2022-09-21T10:56:21.890Z,99006.84
2022-09-21T10:59:22.258Z,99011.13
2022-09-21T11:01:52.889Z,99008.75
2022-09-21T11:04:46.197Z,99006.59
2022-09-21T11:07:34.127Z,99012.59
2022-09-21T11:10:18.724Z,99009.84
2022-09-21T11:12:58.974Z,99008.59
2022-09-21T11:15:49.193Z,99003.09
2022-09-21T11:18:18.689Z,99004.94
2022-09-21T11:21:00.011Z,99010.72
2022-09-21T11:23:50.112Z,98993.44
2022-09-21T11:29:40.066Z,98997.69
2022-09-21T11:32:59.207Z,98991.22
2022-09-21T11:35:53.341Z,98986.53
2022-09-21T11:38:46.282Z,98980.66
2022-09-21T11:41:50.134Z,98981.75
2022-09-21T11:45:16.577Z,98968.91
2022-09-21T11:48:11.158Z,98972.94
2022-09-21T11:50:57.611Z,98980.00
2022-09-21T11:54:05.260Z,98978.72
2022-09-21T11:56:52.632Z,98983.38
2022-09-21T11:59:55.763Z,98971.44
2022-09-21T12:03:08.716Z,98968.50
2022-09-21T12:06:17.938Z,98969.78
2022-09-21T12:09:38.053Z,98970.84
2022-09-21T12:12:38.433Z,98962.63
2022-09-21T12:15:24.547Z,98962.06
2022-09-21T12:18:18.379Z,98962.72
2022-09-21T12:21:01.875Z,98963.19
2022-09-21T12:23:44.057Z,98977.00
2022-09-21T12:26:18.607Z,98971.16
2022-09-21T12:28:54.843Z,98969.41
2022-09-21T12:31:47.275Z,98970.56
2022-09-21T12:34:34.225Z,98966.59
2022-09-21T12:37:27.477Z,98940.34
2022-09-21T12:40:27.995Z,98945.31
2022-09-21T12:43:38.530Z,98939.63
2022-09-21T12:46:21.885Z,98936.69
2022-09-21T12:48:55.495Z,98931.44
2022-09-21T12:51:33.475Z,98928.50
2022-09-21T12:54:18.142Z,98938.47
2022-09-21T12:56:53.915Z,98950.44
2022-09-21T12:59:42.184Z,98960.47
2022-09-21T13:05:28.194Z,98942.28
2022-09-21T13:08:05.910Z,98944.50
2022-09-21T13:10:41.887Z,98941.06
2022-09-21T13:13:27.989Z,98951.97
2022-09-21T13:15:55.626Z,98948.47
2022-09-21T13:18:36.338Z,98948.38
2022-09-21T13:21:23.033Z,98941.47
2022-09-21T13:23:58.804Z,98936.06
2022-09-21T13:26:38.201Z,98933.13
2022-09-21T13:29:27.626Z,98945.03
2022-09-21T13:32:03.730Z,98934.97
2022-09-21T13:34:43.523Z,98936.75
2022-09-21T13:37:19.171Z,98944.84
2022-09-21T13:40:13.306Z,98932.34
2022-09-21T13:42:49.147Z,98919.47
2022-09-21T13:45:36.363Z,98927.06
2022-09-21T13:48:20.145Z,98920.41
2022-09-21T13:50:47.116Z,98913.19
2022-09-21T13:53:28.756Z,98915.59
2022-09-21T13:56:24.936Z,98906.47
2022-09-21T13:58:57.345Z,98909.91
2022-09-21T14:01:51.259Z,98914.91
2022-09-21T14:04:26.698Z,98914.47
2022-09-21T14:06:56.035Z,98913.66
2022-09-21T14:09:40.146Z,98916.28
2022-09-21T14:12:27.729Z,98922.06
2022-09-21T14:15:39.416Z,98914.41
2022-09-21T14:18:37.675Z,98902.06
2022-09-21T14:21:19.344Z,98907.25
2022-09-21T14:24:26.978Z,98908.75
2022-09-21T14:27:45.437Z,98894.50
2022-09-21T14:30:26.031Z,98901.41
2022-09-21T14:33:21.852Z,98894.91
2022-09-21T14:35:51.446Z,98908.88
2022-09-21T14:38:31.822Z,98905.44
2022-09-21T14:41:08.119Z,98901.34
2022-09-21T14:43:37.774Z,98908.16
2022-09-21T14:46:47.778Z,98896.75
2022-09-21T14:50:01.703Z,98909.44
2022-09-21T14:52:59.959Z,98900.69
2022-09-21T14:56:05.517Z,98897.25
2022-09-21T14:58:47.974Z,98891.84
2022-09-21T15:01:33.966Z,98890.78
2022-09-21T15:04:45.319Z,98880.72
2022-09-21T15:07:59.542Z,98882.41
2022-09-21T15:10:56.042Z,98877.91
2022-09-21T15:14:06.169Z,98868.63
2022-09-21T15:16:39.158Z,98868.91
2022-09-21T15:19:16.359Z,98868.44
2022-09-21T15:21:47.513Z,98875.78
2022-09-21T15:24:31.642Z,98873.06
2022-09-21T15:27:15.781Z,98870.59
2022-09-21T15:29:49.173Z,98865.56
2022-09-21T15:32:41.109Z,98870.88
2022-09-21T15:35:22.331Z,98857.94
2022-09-21T15:37:51.311Z,98864.03
2022-09-21T15:40:31.097Z,98858.53
2022-09-21T15:43:05.732Z,98853.19
2022-09-21T15:45:56.021Z,98856.50
2022-09-21T15:48:34.028Z,98863.38
2022-09-21T15:51:14.487Z,98852.34
2022-09-21T15:53:52.488Z,98853.84
2022-09-21T15:56:23.623Z,98846.69
2022-09-21T15:58:51.981Z,98864.28
2022-09-21T16:01:23.361Z,98853.78
2022-09-21T16:04:06.049Z,98855.34
2022-09-21T16:06:38.845Z,98853.41
2022-09-21T16:09:43.249Z,98861.78
2022-09-21T16:12:43.866Z,98862.38
2022-09-21T16:15:32.085Z,98865.88
2022-09-21T16:18:05.098Z,98865.78
2022-09-21T16:20:45.787Z,98868.59
2022-09-21T16:23:17.908Z,98876.81
2022-09-21T16:25:53.649Z,98881.25
2022-09-21T16:28:21.047Z,98884.88
2022-09-21T16:30:53.576Z,98885.91
2022-09-21T16:33:49.155Z,98877.25
2022-09-21T16:36:33.983Z,98874.38
2022-09-21T16:39:14.171Z,98873.53
2022-09-21T16:42:03.032Z,98877.97
2022-09-21T16:44:34.507Z,98884.69
2022-09-21T16:47:03.645Z,98889.94
2022-09-21T16:49:34.723Z,98884.59
2022-09-21T16:54:29.190Z,98888.00
2022-09-21T16:57:00.120Z,98883.28
2022-09-21T16:59:27.825Z,98887.25
2022-09-21T17:01:58.049Z,98885.66
2022-09-21T17:04:32.633Z,98901.53
2022-09-21T17:07:00.817Z,98893.63
2022-09-21T17:09:33.979Z,98894.09
2022-09-21T17:12:03.406Z,98890.56
2022-09-21T17:14:35.807Z,98888.47
2022-09-21T17:17:24.361Z,98893.84
2022-09-21T17:19:53.963Z,98893.16
2022-09-21T17:22:21.940Z,98894.03
2022-09-21T17:24:52.382Z,98892.47
2022-09-21T17:27:26.778Z,98891.22
2022-09-21T17:29:55.268Z,98893.00
2022-09-21T17:32:24.263Z,98891.78
2022-09-21T17:35:12.400Z,98897.19
2022-09-21T17:37:39.364Z,98890.97
2022-09-21T17:40:10.955Z,98897.91
2022-09-21T17:42:43.254Z,98888.44
2022-09-21T17:45:39.305Z,98887.88
2022-09-21T17:48:13.560Z,98891.38
2022-09-21T17:50:40.659Z,98897.16
2022-09-21T17:53:28.097Z,98892.22
2022-09-21T17:55:59.284Z,98901.84
2022-09-21T17:58:28.801Z,98904.63
2022-09-21T18:01:04.831Z,98912.50
2022-09-21T18:03:35.929Z,98911.50
2022-09-21T18:06:04.211Z,98907.41
2022-09-21T18:08:35.432Z,98918.09
2022-09-21T18:11:43.426Z,98915.84
2022-09-21T18:14:52.956Z,98914.69
2022-09-21T18:17:51.580Z,98928.78
2022-09-21T18:20:29.437Z,98923.56
2022-09-21T18:23:14.959Z,98922.22
2022-09-21T18:25:49.193Z,98929.56
2022-09-21T18:28:44.868Z,98935.44
2022-09-21T18:31:46.610Z,98934.41
2022-09-21T18:35:00.109Z,98932.63
2022-09-21T18:38:08.892Z,98935.91
2022-09-21T18:41:12.222Z,98944.03
2022-09-21T18:44:05.162Z,98940.25
2022-09-21T18:46:44.510Z,98940.38
2022-09-21T18:49:43.530Z,98945.31
2022-09-21T18:52:35.891Z,98944.91
2022-09-21T18:55:11.901Z,98950.28
2022-09-21T18:57:39.174Z,98946.34
2022-09-21T19:00:10.790Z,98945.34
2022-09-21T19:02:48.713Z,98953.94
2022-09-21T19:05:25.472Z,98953.28
2022-09-21T19:08:20.558Z,98956.41
2022-09-21T19:11:34.766Z,98958.09
2022-09-21T19:14:07.217Z,98953.78
2022-09-21T19:16:49.209Z,98956.47
2022-09-21T19:19:43.822Z,98954.81
2022-09-21T19:22:54.249Z,98960.53
2022-09-21T19:25:50.400Z,98958.47
2022-09-21T19:28:53.876Z,98956.41
2022-09-21T19:31:21.040Z,98957.84
2022-09-21T19:33:51.137Z,98960.75
2022-09-21T19:36:20.438Z,98963.38
2022-09-21T19:38:48.035Z,98961.13
2022-09-21T19:41:33.310Z,98949.84
2022-09-21T19:44:50.061Z,98951.50
2022-09-21T19:47:30.773Z,98949.63
2022-09-21T19:50:16.589Z,98951.28
2022-09-21T19:52:44.422Z,98951.56
2022-09-21T19:55:39.488Z,98948.91
2022-09-21T19:58:25.919Z,98954.50
2022-09-21T20:00:55.703Z,98963.38
2022-09-21T20:03:44.630Z,98953.31
2022-09-21T20:06:29.819Z,98957.00
2022-09-21T20:09:18.582Z,98955.13
2022-09-21T20:12:22.962Z,98956.59
2022-09-21T20:15:17.904Z,98962.25
2022-09-21T20:18:00.231Z,98954.22
2022-09-21T20:20:28.573Z,98952.59
2022-09-21T20:22:56.232Z,98946.84
2022-09-21T20:25:32.433Z,98950.78
2022-09-21T20:27:59.803Z,98956.19
2022-09-21T20:30:32.674Z,98948.09
2022-09-21T20:33:14.279Z,98947.31
2022-09-21T20:35:42.884Z,98955.09
2022-09-21T20:38:15.079Z,98948.72
2022-09-21T20:40:42.244Z,98945.72
2022-09-21T20:43:10.012Z,98954.28
2022-09-21T20:45:37.518Z,98951.63
2022-09-21T20:48:14.030Z,98954.31
2022-09-21T20:50:48.663Z,98959.06
2022-09-21T20:53:16.572Z,98956.75
2022-09-21T20:55:54.170Z,98962.50
2022-09-21T20:58:21.513Z,98964.16
2022-09-21T21:00:49.039Z,98961.44
2022-09-21T21:03:16.142Z,98974.31
2022-09-21T21:05:43.141Z,98979.81
2022-09-21T21:08:10.084Z,98975.81
2022-09-21T21:10:37.172Z,98973.38
2022-09-21T21:13:05.055Z,98976.25
2022-09-21T21:15:32.268Z,98982.72
2022-09-21T21:17:59.220Z,98980.50
2022-09-21T21:20:26.375Z,98983.41
2022-09-21T21:22:53.780Z,98978.41
2022-09-21T21:25:20.748Z,98974.94
2022-09-21T21:27:47.770Z,98978.13
2022-09-21T21:30:15.549Z,98975.22
2022-09-21T21:32:42.882Z,98972.81
2022-09-21T21:35:09.975Z,98983.91
2022-09-21T21:37:37.396Z,98977.13
2022-09-21T21:40:04.870Z,98980.09
2022-09-21T21:42:31.865Z,98969.38
2022-09-21T21:44:58.834Z,98976.38
2022-09-21T21:47:39.406Z,98967.94
2022-09-21T21:50:08.319Z,98960.34
2022-09-21T21:52:35.276Z,98960.13
2022-09-21T21:55:02.521Z,98966.19
2022-09-21T21:57:29.556Z,98961.53
2022-09-21T21:59:56.510Z,98966.78
2022-09-21T22:02:24.283Z,98972.03
2022-09-21T22:04:53.798Z,98974.56
2022-09-21T22:07:20.785Z,98977.28
2022-09-21T22:09:47.740Z,98968.34
2022-09-21T22:12:14.675Z,98959.44
2022-09-21T22:14:41.652Z,98956.09
2022-09-21T22:17:08.606Z,98958.94
2022-09-21T22:19:35.802Z,98959.81
2022-09-21T22:22:02.768Z,98952.09
2022-09-21T22:24:29.727Z,98952.00
2022-09-21T22:26:56.900Z,98963.84
2022-09-21T22:29:24.600Z,98958.94
2022-09-21T22:31:51.756Z,98962.13
2022-09-21T22:34:20.243Z,98959.06
2022-09-21T22:36:47.248Z,98957.72
2022-09-21T22:39:14.247Z,98955.88
2022-09-21T22:41:42.809Z,98957.03
2022-09-21T22:44:10.847Z,98954.31
2022-09-21T22:46:38.881Z,98963.63
2022-09-21T22:49:05.885Z,98952.13
2022-09-21T22:51:33.914Z,98953.84
2022-09-21T22:54:01.706Z,98957.72
2022-09-21T22:56:32.420Z,98962.69
2022-09-21T22:59:02.449Z,98962.63
2022-09-21T23:01:39.151Z,98960.47
2022-09-21T23:04:10.271Z,98968.31
2022-09-21T23:06:40.658Z,98958.56
2022-09-21T23:09:19.729Z,98954.13
2022-09-21T23:11:53.186Z,98950.22
2022-09-21T23:14:21.249Z,98953.25
2022-09-21T23:16:48.510Z,98942.47
2022-09-21T23:19:15.770Z,98951.81
2022-09-21T23:21:49.867Z,98943.53
2022-09-21T23:24:17.871Z,98947.97
2022-09-21T23:26:45.601Z,98942.38
2022-09-21T23:29:15.145Z,98941.66
2022-09-21T23:31:45.477Z,98941.63
2022-09-21T23:34:13.826Z,98938.22
2022-09-21T23:36:42.093Z,98938.31
2022-09-21T23:39:12.473Z,98938.00
2022-09-21T23:41:39.754Z,98944.56
2022-09-21T23:44:06.795Z,98937.13
2022-09-21T23:46:37.806Z,98934.13
2022-09-21T23:49:05.550Z,98937.19
2022-09-21T23:51:32.844Z,98928.31
2022-09-21T23:54:00.766Z,98936.16
2022-09-21T23:56:28.555Z,98930.34
2022-09-21T23:58:55.948Z,98927.84
